Aviation Digital Data Service (ADDS)

Output produced by METARs form (2002 UTC 08 August 2020)
found at http://www.aviationweather.gov/metar/data/
 
KCNY 081736Z 0818/0918 24007KT P6SM SKC 
     FM082100 23011G19KT P6SM SKC 
     FM090200 20006KT P6SM FEW250